logo
Search for airport 
image banner adimage banner adimage banner ad
image banner ad

FAVRED - Vrede

Located in , South Africa

ICAO - , IATA -

Data provided by Airmate  

General information

Coordinates: S27°26'24" E29°9'11"
Elevation is 5574 feet MSL.
 
View others Airports in Free State

Operational data

Special qualification required
Current time UTC:
Current local time:
Weather at : - ( 0 km )
METAR: EKSP 180626Z 28004KT 0800 R10/1600U R28/0800U BCFG FEW002 BKN015 BKN055 04/03 Q1015 BECMG 9999 NSW
View NOTAMs / SUP AIP / TFR affecting this airport [VIEW]
Communications frequencies: [VIEW]

Runways:

RWY identifierQFULength (ft)Width (ft)SurfaceLDA (ft)
1015°360966GRASS
28195°360966GRASS

Airport contact information

Address: South Africa

Satellite view of FAVRED